Terminal Aerodrome Forecast
Issued by NWS Cleveland, OH

Home | Current Version | Previous Version | Text Only | Print | Product List | Glossary On
Versions: 1 2 3 4 5 6 7 8 9 10 11 12 13 14
005
FTUS41 KCLE 231730
TAFTOL
TAF
KTOL 231730Z 2318/2418 06005KT P6SM SKC
     FM240900 00000KT 4SM BR SKC
      TEMPO 2410/2412 2SM BR
     FM241300 09005KT P6SM SKC=

USA.gov is the U.S. government's official web portal to all federal, state and local government web resources and services.